This is the latest recevied weather packets stored in our database for station/object KN6CRX. If no packets are shown the sender has not sent any weather packets the latest 10 day(s).
| Time | Temp. | Humidity | Pressure | Rain* | Wind** | Luminosity | Snow |
|---|---|---|---|---|---|---|---|
| 1787642209 | 17.22° C | 70% | 1025.8 hPa | 0 mm | - | 0 W/m² | - |
| 1787641905 | 17.78° C | 68% | 1025.6 hPa | 0 mm | - | 0 W/m² | - |
| 1787641603 | 17.78° C | 67% | 1025.6 hPa | 0 mm | - | 0 W/m² | - |
| 1787641298 | 17.78° C | 65% | 1025.2 hPa | 0 mm | - | 0 W/m² | - |
| 1787640992 | 17.22° C | 68% | 1025.3 hPa | 0 mm | - | 0 W/m² | - |
| 1787640688 | 16.67° C | 73% | 1025.5 hPa | 0 mm | - | 0 W/m² | - |
| 1787640387 | 16.67° C | 75% | 1025.5 hPa | 0 mm | - | 0 W/m² | - |
| 1787640083 | 16.67° C | 76% | 1025.5 hPa | 0 mm | - | 0 W/m² | - |
| 1787639778 | 16.67° C | 75% | 1025.9 hPa | 0 mm | - | 0 W/m² | - |
| 1787639475 | 16.67° C | 76% | 1025.5 hPa | 0 mm | - | 0 W/m² | - |
| 1787639174 | 17.22° C | 74% | 1025.8 hPa | 0 mm | - | 0 W/m² | - |
| 1787638873 | 17.22° C | 74% | 1025.5 hPa | 0 mm | - | 0 W/m² | - |
| 1787638570 | 17.78° C | 73% | 1025.4 hPa | 0 mm | - | 0 W/m² | - |
| 1787638266 | 17.78° C | 72% | 1025.6 hPa | 0 mm | - | 0 W/m² | - |
| 1787637961 | 18.33° C | 70% | 1025.4 hPa | 0 mm | - | 0 W/m² | - |
| 1787637657 | 18.33° C | 68% | 1025.4 hPa | 0 mm | - | 0 W/m² | - |
| 1787637356 | 18.89° C | 67% | 1025.1 hPa | 0 mm | - | 0 W/m² | - |
| 1787637056 | 19.44° C | 63% | 1025.2 hPa | 0 mm | - | 0 W/m² | - |
| 1787636754 | 20° C | 59% | 1024.9 hPa | 0 mm | - | 0 W/m² | - |
| 1787636450 | 19.44° C | 57% | 1025.2 hPa | 0 mm | - | 0 W/m² | - |
| 1787636145 | 18.33° C | 61% | 1025.2 hPa | 0 mm | - | 0 W/m² | - |
| 1787635840 | 18.89° C | 66% | 1025.6 hPa | 0 mm | - | 0 W/m² | - |
| 1787635536 | 18.89° C | 62% | 1025.1 hPa | 0 mm | - | 0 W/m² | - |
| 1787635231 | 19.44° C | 61% | 1024.6 hPa | 0 mm | - | 0 W/m² | - |
| 1787634926 | 19.44° C | 60% | 1024.7 hPa | 0 mm | - | 0 W/m² | - |
* Rain latest hour (hover to see other rain measurements)
** Current wind speed in m/s (hover to see current wind gust speed)